sensor_id;sensor_type;location;lat;lon;timestamp;P1;durP1;ratioP1;P2;durP2;ratioP2
1577;SDS011;57623;53.608;10.004;2023-12-22T00:00:02;12.37;;;3.97;;
1577;SDS011;57623;53.608;10.004;2023-12-22T00:02:31;11.53;;;3.20;;
1577;SDS011;57623;53.608;10.004;2023-12-22T00:04:59;11.60;;;2.60;;
1577;SDS011;57623;53.608;10.004;2023-12-22T00:07:27;15.30;;;3.27;;
1577;SDS011;57623;53.608;10.004;2023-12-22T00:09:55;7.87;;;3.50;;
1577;SDS011;57623;53.608;10.004;2023-12-22T00:12:25;13.13;;;3.57;;
1577;SDS011;57623;53.608;10.004;2023-12-22T00:14:53;8.70;;;2.70;;
1577;SDS011;57623;53.608;10.004;2023-12-22T00:17:21;9.33;;;2.87;;
1577;SDS011;57623;53.608;10.004;2023-12-22T00:19:49;10.20;;;2.77;;
1577;SDS011;57623;53.608;10.004;2023-12-22T00:22:17;8.23;;;3.20;;
1577;SDS011;57623;53.608;10.004;2023-12-22T00:24:45;11.70;;;2.73;;
1577;SDS011;57623;53.608;10.004;2023-12-22T00:27:13;8.33;;;3.70;;
1577;SDS011;57623;53.608;10.004;2023-12-22T00:29:42;13.03;;;4.10;;
1577;SDS011;57623;53.608;10.004;2023-12-22T00:32:10;16.17;;;4.80;;
1577;SDS011;57623;53.608;10.004;2023-12-22T00:34:38;12.07;;;3.10;;
1577;SDS011;57623;53.608;10.004;2023-12-22T00:37:06;9.53;;;3.20;;
1577;SDS011;57623;53.608;10.004;2023-12-22T00:39:34;10.80;;;3.83;;
1577;SDS011;57623;53.608;10.004;2023-12-22T00:42:02;8.07;;;2.37;;
1577;SDS011;57623;53.608;10.004;2023-12-22T00:44:31;8.83;;;2.97;;
1577;SDS011;57623;53.608;10.004;2023-12-22T00:47:00;13.40;;;2.90;;
1577;SDS011;57623;53.608;10.004;2023-12-22T00:49:28;14.97;;;2.50;;
1577;SDS011;57623;53.608;10.004;2023-12-22T00:51:56;8.80;;;2.67;;
1577;SDS011;57623;53.608;10.004;2023-12-22T00:54:24;13.27;;;2.90;;
1577;SDS011;57623;53.608;10.004;2023-12-22T00:56:52;12.83;;;2.83;;
1577;SDS011;57623;53.608;10.004;2023-12-22T00:59:20;9.73;;;3.00;;
1577;SDS011;57623;53.608;10.004;2023-12-22T01:01:48;18.00;;;4.33;;
1577;SDS011;57623;53.608;10.004;2023-12-22T01:04:18;14.47;;;3.67;;
1577;SDS011;57623;53.608;10.004;2023-12-22T01:06:46;10.43;;;3.00;;
1577;SDS011;57623;53.608;10.004;2023-12-22T01:09:14;13.30;;;3.67;;
1577;SDS011;57623;53.608;10.004;2023-12-22T01:11:42;11.80;;;3.40;;
1577;SDS011;57623;53.608;10.004;2023-12-22T01:14:10;14.37;;;3.90;;
1577;SDS011;57623;53.608;10.004;2023-12-22T01:16:39;17.53;;;3.63;;
1577;SDS011;57623;53.608;10.004;2023-12-22T01:19:07;8.23;;;2.80;;
1577;SDS011;57623;53.608;10.004;2023-12-22T01:21:37;12.70;;;3.20;;
1577;SDS011;57623;53.608;10.004;2023-12-22T01:24:05;12.00;;;3.03;;
1577;SDS011;57623;53.608;10.004;2023-12-22T01:26:33;9.80;;;2.20;;
1577;SDS011;57623;53.608;10.004;2023-12-22T01:29:01;6.90;;;2.37;;
1577;SDS011;57623;53.608;10.004;2023-12-22T01:31:29;6.73;;;2.17;;
1577;SDS011;57623;53.608;10.004;2023-12-22T01:33:57;4.83;;;2.00;;
1577;SDS011;57623;53.608;10.004;2023-12-22T01:36:25;6.07;;;1.83;;
1577;SDS011;57623;53.608;10.004;2023-12-22T01:38:54;5.60;;;1.47;;
1577;SDS011;57623;53.608;10.004;2023-12-22T01:41:22;6.57;;;1.57;;
1577;SDS011;57623;53.608;10.004;2023-12-22T01:43:50;3.87;;;1.20;;
1577;SDS011;57623;53.608;10.004;2023-12-22T01:46:18;2.90;;;1.07;;
1577;SDS011;57623;53.608;10.004;2023-12-22T01:48:47;1.50;;;1.07;;
1577;SDS011;57623;53.608;10.004;2023-12-22T01:51:15;3.47;;;1.37;;
1577;SDS011;57623;53.608;10.004;2023-12-22T01:53:44;1.53;;;1.00;;
1577;SDS011;57623;53.608;10.004;2023-12-22T01:56:14;1.90;;;1.10;;
1577;SDS011;57623;53.608;10.004;2023-12-22T01:58:42;2.30;;;0.90;;
1577;SDS011;57623;53.608;10.004;2023-12-22T02:01:10;2.30;;;1.00;;
1577;SDS011;57623;53.608;10.004;2023-12-22T02:03:39;1.90;;;0.90;;
1577;SDS011;57623;53.608;10.004;2023-12-22T02:06:07;2.60;;;0.90;;
1577;SDS011;57623;53.608;10.004;2023-12-22T02:08:35;5.87;;;1.17;;
1577;SDS011;57623;53.608;10.004;2023-12-22T02:11:04;2.90;;;1.10;;
1577;SDS011;57623;53.608;10.004;2023-12-22T02:13:33;2.30;;;0.80;;
1577;SDS011;57623;53.608;10.004;2023-12-22T02:16:03;4.10;;;1.00;;
1577;SDS011;57623;53.608;10.004;2023-12-22T02:18:35;2.30;;;0.80;;
1577;SDS011;57623;53.608;10.004;2023-12-22T02:21:06;2.63;;;1.17;;
1577;SDS011;57623;53.608;10.004;2023-12-22T02:23:36;6.10;;;1.50;;
1577;SDS011;57623;53.608;10.004;2023-12-22T02:26:06;3.20;;;1.13;;
1577;SDS011;57623;53.608;10.004;2023-12-22T02:28:39;5.00;;;1.67;;
1577;SDS011;57623;53.608;10.004;2023-12-22T02:31:09;9.67;;;1.60;;
1577;SDS011;57623;53.608;10.004;2023-12-22T02:33:43;3.30;;;1.40;;
1577;SDS011;57623;53.608;10.004;2023-12-22T02:36:13;4.37;;;1.00;;
1577;SDS011;57623;53.608;10.004;2023-12-22T02:38:45;8.03;;;1.87;;
1577;SDS011;57623;53.608;10.004;2023-12-22T02:41:14;7.10;;;1.70;;
1577;SDS011;57623;53.608;10.004;2023-12-22T02:43:43;7.50;;;1.90;;
1577;SDS011;57623;53.608;10.004;2023-12-22T02:46:12;4.40;;;1.80;;
1577;SDS011;57623;53.608;10.004;2023-12-22T02:48:41;6.73;;;2.00;;
1577;SDS011;57623;53.608;10.004;2023-12-22T02:51:09;5.20;;;1.63;;
1577;SDS011;57623;53.608;10.004;2023-12-22T02:53:37;6.80;;;1.70;;
1577;SDS011;57623;53.608;10.004;2023-12-22T02:56:07;4.10;;;1.50;;
1577;SDS011;57623;53.608;10.004;2023-12-22T02:58:35;8.33;;;1.10;;
1577;SDS011;57623;53.608;10.004;2023-12-22T03:01:03;2.73;;;1.60;;
1577;SDS011;57623;53.608;10.004;2023-12-22T03:03:31;4.50;;;1.43;;
1577;SDS011;57623;53.608;10.004;2023-12-22T03:05:59;2.67;;;1.00;;
1577;SDS011;57623;53.608;10.004;2023-12-22T03:08:27;5.13;;;1.57;;
1577;SDS011;57623;53.608;10.004;2023-12-22T03:10:55;4.33;;;0.80;;
1577;SDS011;57623;53.608;10.004;2023-12-22T03:13:24;2.87;;;0.90;;
1577;SDS011;57623;53.608;10.004;2023-12-22T03:15:52;1.63;;;0.70;;
1577;SDS011;57623;53.608;10.004;2023-12-22T03:18:20;3.20;;;0.97;;
1577;SDS011;57623;53.608;10.004;2023-12-22T03:20:48;1.10;;;0.60;;
1577;SDS011;57623;53.608;10.004;2023-12-22T03:23:16;1.00;;;0.70;;
1577;SDS011;57623;53.608;10.004;2023-12-22T03:25:44;1.30;;;0.73;;
1577;SDS011;57623;53.608;10.004;2023-12-22T03:28:12;2.00;;;0.80;;
1577;SDS011;57623;53.608;10.004;2023-12-22T03:30:42;2.43;;;0.80;;
1577;SDS011;57623;53.608;10.004;2023-12-22T03:33:10;1.13;;;1.03;;
1577;SDS011;57623;53.608;10.004;2023-12-22T03:35:38;0.70;;;0.63;;
1577;SDS011;57623;53.608;10.004;2023-12-22T03:38:06;2.10;;;0.60;;
1577;SDS011;57623;53.608;10.004;2023-12-22T03:40:34;1.47;;;0.80;;
1577;SDS011;57623;53.608;10.004;2023-12-22T03:43:02;1.63;;;0.70;;
1577;SDS011;57623;53.608;10.004;2023-12-22T03:45:30;2.97;;;0.90;;
1577;SDS011;57623;53.608;10.004;2023-12-22T03:48:00;3.33;;;0.70;;
1577;SDS011;57623;53.608;10.004;2023-12-22T03:50:28;3.73;;;0.83;;
1577;SDS011;57623;53.608;10.004;2023-12-22T03:52:56;2.07;;;1.10;;
1577;SDS011;57623;53.608;10.004;2023-12-22T03:55:24;2.20;;;1.13;;
1577;SDS011;57623;53.608;10.004;2023-12-22T03:57:52;2.40;;;1.20;;
1577;SDS011;57623;53.608;10.004;2023-12-22T04:00:20;5.80;;;1.00;;
1577;SDS011;57623;53.608;10.004;2023-12-22T04:02:48;4.07;;;1.17;;
1577;SDS011;57623;53.608;10.004;2023-12-22T04:05:17;5.90;;;1.77;;
1577;SDS011;57623;53.608;10.004;2023-12-22T04:07:45;8.63;;;1.50;;
1577;SDS011;57623;53.608;10.004;2023-12-22T04:10:15;3.17;;;1.50;;
1577;SDS011;57623;53.608;10.004;2023-12-22T04:12:44;4.03;;;2.03;;
1577;SDS011;57623;53.608;10.004;2023-12-22T04:15:12;7.27;;;1.40;;
1577;SDS011;57623;53.608;10.004;2023-12-22T04:17:40;5.70;;;2.37;;
1577;SDS011;57623;53.608;10.004;2023-12-22T04:20:08;3.13;;;0.93;;
1577;SDS011;57623;53.608;10.004;2023-12-22T04:22:37;8.53;;;1.93;;
1577;SDS011;57623;53.608;10.004;2023-12-22T04:25:06;6.00;;;1.57;;
1577;SDS011;57623;53.608;10.004;2023-12-22T04:27:34;5.60;;;1.73;;
1577;SDS011;57623;53.608;10.004;2023-12-22T04:30:03;6.83;;;1.57;;
1577;SDS011;57623;53.608;10.004;2023-12-22T04:32:31;5.80;;;2.20;;
1577;SDS011;57623;53.608;10.004;2023-12-22T04:34:59;5.30;;;1.70;;
1577;SDS011;57623;53.608;10.004;2023-12-22T04:37:27;6.13;;;1.80;;
1577;SDS011;57623;53.608;10.004;2023-12-22T04:39:57;5.23;;;1.47;;
1577;SDS011;57623;53.608;10.004;2023-12-22T04:42:25;6.20;;;1.90;;
1577;SDS011;57623;53.608;10.004;2023-12-22T04:44:53;9.20;;;1.60;;
1577;SDS011;57623;53.608;10.004;2023-12-22T04:47:21;4.13;;;1.73;;
1577;SDS011;57623;53.608;10.004;2023-12-22T04:49:49;3.60;;;1.10;;
1577;SDS011;57623;53.608;10.004;2023-12-22T04:52:17;8.13;;;1.80;;
1577;SDS011;57623;53.608;10.004;2023-12-22T04:54:45;8.23;;;1.50;;
1577;SDS011;57623;53.608;10.004;2023-12-22T04:57:15;9.00;;;1.73;;
1577;SDS011;57623;53.608;10.004;2023-12-22T04:59:44;5.83;;;1.60;;
1577;SDS011;57623;53.608;10.004;2023-12-22T05:02:12;6.77;;;1.70;;
1577;SDS011;57623;53.608;10.004;2023-12-22T05:04:40;7.33;;;1.40;;
1577;SDS011;57623;53.608;10.004;2023-12-22T05:07:08;9.27;;;2.17;;
1577;SDS011;57623;53.608;10.004;2023-12-22T05:09:37;4.60;;;1.70;;
1577;SDS011;57623;53.608;10.004;2023-12-22T05:12:05;8.33;;;2.37;;
1577;SDS011;57623;53.608;10.004;2023-12-22T05:14:35;8.90;;;2.23;;
1577;SDS011;57623;53.608;10.004;2023-12-22T05:17:04;5.30;;;1.77;;
1577;SDS011;57623;53.608;10.004;2023-12-22T05:19:32;5.33;;;1.60;;
1577;SDS011;57623;53.608;10.004;2023-12-22T05:22:00;6.77;;;1.40;;
1577;SDS011;57623;53.608;10.004;2023-12-22T05:24:28;8.53;;;2.17;;
1577;SDS011;57623;53.608;10.004;2023-12-22T05:26:56;5.40;;;1.73;;
1577;SDS011;57623;53.608;10.004;2023-12-22T05:29:24;4.23;;;1.93;;
1577;SDS011;57623;53.608;10.004;2023-12-22T05:31:53;6.50;;;1.53;;
1577;SDS011;57623;53.608;10.004;2023-12-22T05:34:21;9.93;;;2.17;;
1577;SDS011;57623;53.608;10.004;2023-12-22T05:36:49;5.40;;;2.00;;
1577;SDS011;57623;53.608;10.004;2023-12-22T05:39:17;5.60;;;1.50;;
1577;SDS011;57623;53.608;10.004;2023-12-22T05:41:45;4.53;;;1.63;;
1577;SDS011;57623;53.608;10.004;2023-12-22T05:44:13;4.77;;;1.60;;
1577;SDS011;57623;53.608;10.004;2023-12-22T05:46:41;7.57;;;1.53;;
1577;SDS011;57623;53.608;10.004;2023-12-22T05:49:11;3.53;;;1.40;;
1577;SDS011;57623;53.608;10.004;2023-12-22T05:51:39;9.03;;;2.53;;
1577;SDS011;57623;53.608;10.004;2023-12-22T05:54:08;5.17;;;1.50;;
1577;SDS011;57623;53.608;10.004;2023-12-22T05:56:36;4.93;;;1.30;;
1577;SDS011;57623;53.608;10.004;2023-12-22T05:59:04;5.57;;;1.50;;
1577;SDS011;57623;53.608;10.004;2023-12-22T06:01:32;4.50;;;1.67;;
1577;SDS011;57623;53.608;10.004;2023-12-22T06:04:00;5.57;;;1.90;;
1577;SDS011;57623;53.608;10.004;2023-12-22T06:06:30;2.80;;;1.20;;
1577;SDS011;57623;53.608;10.004;2023-12-22T06:08:58;7.20;;;1.80;;
1577;SDS011;57623;53.608;10.004;2023-12-22T06:11:26;3.83;;;1.10;;
1577;SDS011;57623;53.608;10.004;2023-12-22T06:13:54;3.13;;;1.20;;
1577;SDS011;57623;53.608;10.004;2023-12-22T06:16:22;6.73;;;1.07;;
1577;SDS011;57623;53.608;10.004;2023-12-22T06:18:50;7.47;;;1.17;;
1577;SDS011;57623;53.608;10.004;2023-12-22T06:21:18;5.77;;;1.20;;
1577;SDS011;57623;53.608;10.004;2023-12-22T06:23:47;6.40;;;1.10;;
1577;SDS011;57623;53.608;10.004;2023-12-22T06:26:15;5.70;;;1.40;;
1577;SDS011;57623;53.608;10.004;2023-12-22T06:28:43;4.73;;;1.70;;
1577;SDS011;57623;53.608;10.004;2023-12-22T06:31:16;3.60;;;1.50;;
1577;SDS011;57623;53.608;10.004;2023-12-22T06:33:45;6.83;;;1.97;;
1577;SDS011;57623;53.608;10.004;2023-12-22T06:36:17;5.13;;;1.73;;
1577;SDS011;57623;53.608;10.004;2023-12-22T06:38:47;7.53;;;2.10;;
1577;SDS011;57623;53.608;10.004;2023-12-22T06:41:19;7.13;;;2.20;;
1577;SDS011;57623;53.608;10.004;2023-12-22T06:43:52;6.27;;;1.70;;
1577;SDS011;57623;53.608;10.004;2023-12-22T06:46:21;6.20;;;1.50;;
1577;SDS011;57623;53.608;10.004;2023-12-22T06:48:52;6.70;;;1.87;;
1577;SDS011;57623;53.608;10.004;2023-12-22T06:51:22;8.60;;;1.90;;
1577;SDS011;57623;53.608;10.004;2023-12-22T06:53:53;8.43;;;2.43;;
1577;SDS011;57623;53.608;10.004;2023-12-22T06:56:23;10.00;;;2.27;;
1577;SDS011;57623;53.608;10.004;2023-12-22T06:58:52;8.50;;;2.30;;
1577;SDS011;57623;53.608;10.004;2023-12-22T07:01:23;12.13;;;2.30;;
1577;SDS011;57623;53.608;10.004;2023-12-22T07:03:52;6.33;;;2.30;;
1577;SDS011;57623;53.608;10.004;2023-12-22T07:06:21;15.70;;;3.07;;
1577;SDS011;57623;53.608;10.004;2023-12-22T07:08:58;9.30;;;2.60;;
1577;SDS011;57623;53.608;10.004;2023-12-22T07:11:56;7.20;;;2.83;;
1577;SDS011;57623;53.608;10.004;2023-12-22T07:14:24;9.20;;;3.57;;
1577;SDS011;57623;53.608;10.004;2023-12-22T07:16:52;13.70;;;2.80;;
1577;SDS011;57623;53.608;10.004;2023-12-22T07:19:20;10.00;;;2.70;;
1577;SDS011;57623;53.608;10.004;2023-12-22T07:21:49;12.13;;;5.20;;
1577;SDS011;57623;53.608;10.004;2023-12-22T07:24:18;10.83;;;2.77;;
1577;SDS011;57623;53.608;10.004;2023-12-22T07:26:46;9.77;;;2.90;;
1577;SDS011;57623;53.608;10.004;2023-12-22T07:29:14;12.53;;;3.27;;
1577;SDS011;57623;53.608;10.004;2023-12-22T07:31:42;8.57;;;2.73;;
1577;SDS011;57623;53.608;10.004;2023-12-22T07:34:12;10.80;;;2.70;;
1577;SDS011;57623;53.608;10.004;2023-12-22T07:36:41;6.83;;;2.63;;
1577;SDS011;57623;53.608;10.004;2023-12-22T07:39:21;11.43;;;3.67;;
1577;SDS011;57623;53.608;10.004;2023-12-22T07:41:49;12.83;;;3.27;;
1577;SDS011;57623;53.608;10.004;2023-12-22T07:44:17;10.53;;;3.00;;
1577;SDS011;57623;53.608;10.004;2023-12-22T07:46:45;8.07;;;2.60;;
1577;SDS011;57623;53.608;10.004;2023-12-22T07:49:22;6.20;;;2.30;;
1577;SDS011;57623;53.608;10.004;2023-12-22T07:51:51;8.93;;;2.97;;
1577;SDS011;57623;53.608;10.004;2023-12-22T07:54:21;14.43;;;4.00;;
1577;SDS011;57623;53.608;10.004;2023-12-22T07:56:50;16.57;;;3.93;;
1577;SDS011;57623;53.608;10.004;2023-12-22T07:59:18;14.90;;;4.23;;
1577;SDS011;57623;53.608;10.004;2023-12-22T08:01:56;9.80;;;2.70;;
1577;SDS011;57623;53.608;10.004;2023-12-22T08:04:24;9.20;;;2.80;;
1577;SDS011;57623;53.608;10.004;2023-12-22T08:06:52;6.20;;;1.83;;
1577;SDS011;57623;53.608;10.004;2023-12-22T08:09:22;5.27;;;2.00;;
1577;SDS011;57623;53.608;10.004;2023-12-22T08:11:50;10.80;;;3.10;;
1577;SDS011;57623;53.608;10.004;2023-12-22T08:14:19;6.60;;;1.57;;
1577;SDS011;57623;53.608;10.004;2023-12-22T08:16:49;5.77;;;1.60;;
1577;SDS011;57623;53.608;10.004;2023-12-22T08:19:17;6.20;;;2.23;;
1577;SDS011;57623;53.608;10.004;2023-12-22T08:21:47;4.53;;;1.47;;
1577;SDS011;57623;53.608;10.004;2023-12-22T08:24:18;6.33;;;1.90;;
1577;SDS011;57623;53.608;10.004;2023-12-22T08:26:50;8.00;;;1.70;;
1577;SDS011;57623;53.608;10.004;2023-12-22T08:29:18;3.70;;;1.60;;
1577;SDS011;57623;53.608;10.004;2023-12-22T08:31:46;7.07;;;1.90;;
1577;SDS011;57623;53.608;10.004;2023-12-22T08:34:15;3.27;;;1.50;;
1577;SDS011;57623;53.608;10.004;2023-12-22T08:36:43;7.47;;;1.90;;
1577;SDS011;57623;53.608;10.004;2023-12-22T08:39:11;8.77;;;2.50;;
1577;SDS011;57623;53.608;10.004;2023-12-22T08:41:40;9.10;;;2.10;;
1577;SDS011;57623;53.608;10.004;2023-12-22T08:44:10;5.93;;;1.80;;
1577;SDS011;57623;53.608;10.004;2023-12-22T08:46:41;9.50;;;2.10;;
1577;SDS011;57623;53.608;10.004;2023-12-22T08:49:09;7.23;;;1.70;;
1577;SDS011;57623;53.608;10.004;2023-12-22T08:51:37;10.60;;;2.20;;
1577;SDS011;57623;53.608;10.004;2023-12-22T08:54:05;8.30;;;2.03;;
1577;SDS011;57623;53.608;10.004;2023-12-22T08:56:33;8.53;;;2.20;;
1577;SDS011;57623;53.608;10.004;2023-12-22T08:59:02;4.83;;;1.90;;
1577;SDS011;57623;53.608;10.004;2023-12-22T09:01:31;6.60;;;1.93;;
1577;SDS011;57623;53.608;10.004;2023-12-22T09:03:59;2.93;;;1.87;;
1577;SDS011;57623;53.608;10.004;2023-12-22T09:06:28;9.27;;;1.90;;
1577;SDS011;57623;53.608;10.004;2023-12-22T09:08:56;4.50;;;1.70;;
1577;SDS011;57623;53.608;10.004;2023-12-22T09:11:23;3.30;;;1.20;;
1577;SDS011;57623;53.608;10.004;2023-12-22T09:13:52;5.87;;;1.60;;
1577;SDS011;57623;53.608;10.004;2023-12-22T09:16:20;6.57;;;1.73;;
1577;SDS011;57623;53.608;10.004;2023-12-22T09:18:51;4.87;;;1.90;;
1577;SDS011;57623;53.608;10.004;2023-12-22T09:21:19;3.20;;;1.37;;
1577;SDS011;57623;53.608;10.004;2023-12-22T09:23:47;3.53;;;1.90;;
1577;SDS011;57623;53.608;10.004;2023-12-22T09:26:16;4.93;;;1.50;;
1577;SDS011;57623;53.608;10.004;2023-12-22T09:28:45;4.10;;;1.37;;
1577;SDS011;57623;53.608;10.004;2023-12-22T09:31:13;4.13;;;1.30;;
1577;SDS011;57623;53.608;10.004;2023-12-22T09:33:41;3.47;;;1.33;;
1577;SDS011;57623;53.608;10.004;2023-12-22T09:36:11;6.20;;;1.97;;
1577;SDS011;57623;53.608;10.004;2023-12-22T09:38:39;4.23;;;1.83;;
1577;SDS011;57623;53.608;10.004;2023-12-22T09:41:08;5.17;;;1.70;;
1577;SDS011;57623;53.608;10.004;2023-12-22T09:43:36;7.67;;;3.30;;
1577;SDS011;57623;53.608;10.004;2023-12-22T09:46:06;5.80;;;2.00;;
1577;SDS011;57623;53.608;10.004;2023-12-22T09:48:36;5.73;;;1.70;;
1577;SDS011;57623;53.608;10.004;2023-12-22T09:51:06;10.50;;;2.83;;
1577;SDS011;57623;53.608;10.004;2023-12-22T09:53:37;5.77;;;1.87;;
1577;SDS011;57623;53.608;10.004;2023-12-22T09:56:07;3.90;;;1.60;;
1577;SDS011;57623;53.608;10.004;2023-12-22T09:58:36;11.27;;;2.40;;
1577;SDS011;57623;53.608;10.004;2023-12-22T10:01:05;6.67;;;1.90;;
1577;SDS011;57623;53.608;10.004;2023-12-22T10:03:33;8.83;;;2.07;;
1577;SDS011;57623;53.608;10.004;2023-12-22T10:06:02;12.93;;;2.37;;
1577;SDS011;57623;53.608;10.004;2023-12-22T10:08:31;6.93;;;1.73;;
1577;SDS011;57623;53.608;10.004;2023-12-22T10:11:01;7.47;;;2.63;;
1577;SDS011;57623;53.608;10.004;2023-12-22T10:13:31;6.60;;;1.60;;
1577;SDS011;57623;53.608;10.004;2023-12-22T10:16:04;8.03;;;1.90;;
1577;SDS011;57623;53.608;10.004;2023-12-22T10:18:33;8.13;;;2.30;;
1577;SDS011;57623;53.608;10.004;2023-12-22T10:21:01;6.73;;;2.47;;
1577;SDS011;57623;53.608;10.004;2023-12-22T10:23:29;4.23;;;1.47;;
1577;SDS011;57623;53.608;10.004;2023-12-22T10:25:57;6.77;;;2.07;;
1577;SDS011;57623;53.608;10.004;2023-12-22T10:28:28;7.20;;;2.23;;
1577;SDS011;57623;53.608;10.004;2023-12-22T10:30:56;10.63;;;2.70;;
1577;SDS011;57623;53.608;10.004;2023-12-22T10:33:30;9.47;;;2.40;;
1577;SDS011;57623;53.608;10.004;2023-12-22T10:35:58;10.90;;;2.07;;
1577;SDS011;57623;53.608;10.004;2023-12-22T10:38:27;7.10;;;1.80;;
1577;SDS011;57623;53.608;10.004;2023-12-22T10:41:01;13.93;;;2.90;;
1577;SDS011;57623;53.608;10.004;2023-12-22T10:43:36;6.93;;;2.50;;
1577;SDS011;57623;53.608;10.004;2023-12-22T10:46:06;8.97;;;2.37;;
1577;SDS011;57623;53.608;10.004;2023-12-22T10:48:37;14.13;;;2.63;;
1577;SDS011;57623;53.608;10.004;2023-12-22T10:51:08;7.73;;;2.27;;
1577;SDS011;57623;53.608;10.004;2023-12-22T10:53:40;6.27;;;2.37;;
1577;SDS011;57623;53.608;10.004;2023-12-22T10:56:08;9.07;;;1.87;;
1577;SDS011;57623;53.608;10.004;2023-12-22T10:58:39;8.43;;;2.20;;
1577;SDS011;57623;53.608;10.004;2023-12-22T11:01:07;7.40;;;2.17;;
1577;SDS011;57623;53.608;10.004;2023-12-22T11:03:37;7.37;;;2.17;;
1577;SDS011;57623;53.608;10.004;2023-12-22T11:06:07;5.30;;;1.70;;
1577;SDS011;57623;53.608;10.004;2023-12-22T11:08:40;3.80;;;1.30;;
1577;SDS011;57623;53.608;10.004;2023-12-22T11:11:12;5.70;;;2.10;;
1577;SDS011;57623;53.608;10.004;2023-12-22T11:13:44;7.43;;;1.90;;
1577;SDS011;57623;53.608;10.004;2023-12-22T11:16:13;6.50;;;2.83;;
1577;SDS011;57623;53.608;10.004;2023-12-22T11:18:42;6.20;;;2.00;;
1577;SDS011;57623;53.608;10.004;2023-12-22T11:21:11;8.30;;;2.27;;
1577;SDS011;57623;53.608;10.004;2023-12-22T11:23:40;7.03;;;1.67;;
1577;SDS011;57623;53.608;10.004;2023-12-22T11:26:11;10.70;;;1.70;;
1577;SDS011;57623;53.608;10.004;2023-12-22T11:28:41;6.40;;;2.20;;
1577;SDS011;57623;53.608;10.004;2023-12-22T11:31:11;9.67;;;1.97;;
1577;SDS011;57623;53.608;10.004;2023-12-22T11:33:42;8.00;;;1.47;;
1577;SDS011;57623;53.608;10.004;2023-12-22T11:36:28;8.87;;;1.70;;
1577;SDS011;57623;53.608;10.004;2023-12-22T11:38:58;6.17;;;1.90;;
1577;SDS011;57623;53.608;10.004;2023-12-22T11:41:27;5.63;;;2.17;;
1577;SDS011;57623;53.608;10.004;2023-12-22T11:43:59;6.20;;;1.77;;
1577;SDS011;57623;53.608;10.004;2023-12-22T11:46:31;4.67;;;1.63;;
1577;SDS011;57623;53.608;10.004;2023-12-22T11:49:00;8.03;;;2.40;;
1577;SDS011;57623;53.608;10.004;2023-12-22T11:51:31;8.07;;;2.00;;
1577;SDS011;57623;53.608;10.004;2023-12-22T11:54:00;4.30;;;1.40;;
1577;SDS011;57623;53.608;10.004;2023-12-22T11:56:28;7.23;;;2.40;;
1577;SDS011;57623;53.608;10.004;2023-12-22T11:58:57;5.00;;;2.43;;
1577;SDS011;57623;53.608;10.004;2023-12-22T12:01:28;11.67;;;2.20;;
1577;SDS011;57623;53.608;10.004;2023-12-22T12:04:01;6.07;;;1.73;;
1577;SDS011;57623;53.608;10.004;2023-12-22T12:06:32;6.73;;;2.10;;
1577;SDS011;57623;53.608;10.004;2023-12-22T12:09:04;9.57;;;2.63;;
1577;SDS011;57623;53.608;10.004;2023-12-22T12:14:40;4.77;;;1.70;;
1577;SDS011;57623;53.608;10.004;2023-12-22T12:17:10;5.10;;;1.70;;
1577;SDS011;57623;53.608;10.004;2023-12-22T12:19:40;4.43;;;1.80;;
1577;SDS011;57623;53.608;10.004;2023-12-22T12:22:09;8.40;;;2.00;;
1577;SDS011;57623;53.608;10.004;2023-12-22T12:24:40;8.03;;;1.77;;
1577;SDS011;57623;53.608;10.004;2023-12-22T12:27:08;7.90;;;1.83;;
1577;SDS011;57623;53.608;10.004;2023-12-22T12:29:36;5.47;;;1.70;;
1577;SDS011;57623;53.608;10.004;2023-12-22T12:32:06;11.03;;;2.73;;
1577;SDS011;57623;53.608;10.004;2023-12-22T12:34:34;6.13;;;1.83;;
1577;SDS011;57623;53.608;10.004;2023-12-22T12:37:06;7.77;;;3.93;;
1577;SDS011;57623;53.608;10.004;2023-12-22T12:39:34;10.13;;;1.93;;
1577;SDS011;57623;53.608;10.004;2023-12-22T12:42:05;5.63;;;1.90;;
1577;SDS011;57623;53.608;10.004;2023-12-22T12:44:35;8.40;;;2.10;;
1577;SDS011;57623;53.608;10.004;2023-12-22T12:47:11;9.10;;;2.00;;
1577;SDS011;57623;53.608;10.004;2023-12-22T12:49:39;8.77;;;2.37;;
1577;SDS011;57623;53.608;10.004;2023-12-22T12:52:13;6.63;;;1.83;;
1577;SDS011;57623;53.608;10.004;2023-12-22T12:54:41;7.00;;;2.00;;
1577;SDS011;57623;53.608;10.004;2023-12-22T12:57:13;7.80;;;1.97;;
1577;SDS011;57623;53.608;10.004;2023-12-22T12:59:44;5.60;;;1.67;;
1577;SDS011;57623;53.608;10.004;2023-12-22T13:02:13;5.03;;;1.50;;
1577;SDS011;57623;53.608;10.004;2023-12-22T13:04:41;6.27;;;1.83;;
1577;SDS011;57623;53.608;10.004;2023-12-22T13:07:10;9.27;;;3.20;;
1577;SDS011;57623;53.608;10.004;2023-12-22T13:09:40;12.60;;;2.10;;
1577;SDS011;57623;53.608;10.004;2023-12-22T13:12:11;9.70;;;1.93;;
1577;SDS011;57623;53.608;10.004;2023-12-22T13:14:38;14.90;;;2.43;;
1577;SDS011;57623;53.608;10.004;2023-12-22T13:17:06;9.07;;;2.20;;
1577;SDS011;57623;53.608;10.004;2023-12-22T13:19:36;14.40;;;2.37;;
1577;SDS011;57623;53.608;10.004;2023-12-22T13:22:05;8.50;;;2.57;;
1577;SDS011;57623;53.608;10.004;2023-12-22T13:24:33;9.30;;;2.43;;
1577;SDS011;57623;53.608;10.004;2023-12-22T13:27:03;6.03;;;2.13;;
1577;SDS011;57623;53.608;10.004;2023-12-22T13:32:20;14.10;;;4.23;;
1577;SDS011;57623;53.608;10.004;2023-12-22T13:34:51;9.97;;;2.40;;
1577;SDS011;57623;53.608;10.004;2023-12-22T13:37:20;7.53;;;2.50;;
1577;SDS011;57623;53.608;10.004;2023-12-22T13:39:48;8.37;;;2.40;;
1577;SDS011;57623;53.608;10.004;2023-12-22T13:42:19;8.30;;;2.50;;
1577;SDS011;57623;53.608;10.004;2023-12-22T13:44:48;14.37;;;3.07;;
1577;SDS011;57623;53.608;10.004;2023-12-22T13:47:18;9.83;;;2.87;;
1577;SDS011;57623;53.608;10.004;2023-12-22T13:49:47;7.87;;;2.60;;
1577;SDS011;57623;53.608;10.004;2023-12-22T13:52:25;7.80;;;2.20;;
1577;SDS011;57623;53.608;10.004;2023-12-22T13:54:54;7.40;;;2.37;;
1577;SDS011;57623;53.608;10.004;2023-12-22T13:57:24;4.30;;;2.00;;
1577;SDS011;57623;53.608;10.004;2023-12-22T13:59:52;6.17;;;2.57;;
1577;SDS011;57623;53.608;10.004;2023-12-22T14:02:21;6.73;;;2.47;;
1577;SDS011;57623;53.608;10.004;2023-12-22T14:04:49;9.20;;;2.23;;
1577;SDS011;57623;53.608;10.004;2023-12-22T14:07:18;10.23;;;2.70;;
1577;SDS011;57623;53.608;10.004;2023-12-22T14:09:47;12.97;;;2.10;;
1577;SDS011;57623;53.608;10.004;2023-12-22T14:12:15;5.77;;;2.07;;
1577;SDS011;57623;53.608;10.004;2023-12-22T14:14:55;7.90;;;2.47;;
1577;SDS011;57623;53.608;10.004;2023-12-22T14:17:23;7.10;;;2.50;;
1577;SDS011;57623;53.608;10.004;2023-12-22T14:19:54;7.77;;;2.17;;
1577;SDS011;57623;53.608;10.004;2023-12-22T14:22:22;8.03;;;2.53;;
1577;SDS011;57623;53.608;10.004;2023-12-22T14:24:50;6.20;;;2.20;;
1577;SDS011;57623;53.608;10.004;2023-12-22T14:27:18;4.60;;;1.30;;
1577;SDS011;57623;53.608;10.004;2023-12-22T14:29:46;6.33;;;2.67;;
1577;SDS011;57623;53.608;10.004;2023-12-22T14:32:15;5.77;;;1.83;;
1577;SDS011;57623;53.608;10.004;2023-12-22T14:34:45;5.20;;;1.50;;
1577;SDS011;57623;53.608;10.004;2023-12-22T14:37:14;4.93;;;2.10;;
1577;SDS011;57623;53.608;10.004;2023-12-22T14:39:42;6.37;;;1.70;;
1577;SDS011;57623;53.608;10.004;2023-12-22T14:42:11;8.50;;;2.07;;
1577;SDS011;57623;53.608;10.004;2023-12-22T14:44:40;7.43;;;2.40;;
1577;SDS011;57623;53.608;10.004;2023-12-22T14:47:08;4.10;;;1.53;;
1577;SDS011;57623;53.608;10.004;2023-12-22T14:49:41;6.10;;;2.17;;
1577;SDS011;57623;53.608;10.004;2023-12-22T14:52:09;4.37;;;2.03;;
1577;SDS011;57623;53.608;10.004;2023-12-22T14:54:36;5.27;;;1.70;;
1577;SDS011;57623;53.608;10.004;2023-12-22T14:57:04;6.57;;;2.67;;
1577;SDS011;57623;53.608;10.004;2023-12-22T14:59:32;3.00;;;1.57;;
1577;SDS011;57623;53.608;10.004;2023-12-22T15:02:00;5.93;;;1.60;;